Eftichia — C6ZI4 — position and weather

sailwx.info

Track history (hours):
 
Tides and Currents Weather Stations Pressure Air Temp Water Temp Dewpoint Dewpoint Depression Visibility Wind Speed Wind Dir Waves Ship Positions

Eftichia

Last reported at 2017-Mar-25 00:13 UTC. Time now 2017-Mar-25 07:48 UTC.
Position N 36°07' W 005°08'.

Length 181 m; draft 6.1 m.

Type: Cargo ship. MMSI: 311033882.

Date/timePositionNaut miles runAvg speedWind from/ knotsBaromVisibWave heightAir tempDewpointWater temp
2017-Mar-25 00:13N 36°07' W 005°08'5 7.1
2017-Mar-24 23:33N 36°06' W 005°13'7 6.9
2017-Mar-24 22:33N 36°05' W 005°22'1 0.8
2017-Mar-24 21:34N 36°05' W 005°23'2 2.1
2017-Mar-24 20:33N 36°07' W 005°21'0 0.1
2017-Mar-24 19:21N 36°07' W 005°21'0 0.0
2017-Mar-24 13:33N 36°07' W 005°21'2 1.6
2017-Mar-24 12:33N 36°05' W 005°22'2 2.2
2017-Mar-24 11:33N 36°03' W 005°22'9 8.8
2017-Mar-24 10:33N 35°57' W 005°30'1311.9
2017-Mar-24 09:28N 35°55' W 005°45'  
Track history (hours):
 
Tides and Currents Weather Stations Pressure Air Temp Water Temp Dewpoint Dewpoint Depression Visibility Wind Speed Wind Dir Waves Ship Positions

Eftichia

Last reported at 2017-Mar-25 00:13 UTC. Time now 2017-Mar-25 07:48 UTC.
Position N 36°07' W 005°08'.

Length 181 m; draft 6.1 m.

Type: Cargo ship. MMSI: 311033882.

Date/timePositionNaut miles runAvg speedWind from/ knotsBaromVisibWave heightAir tempDewpointWater temp
2017-Mar-25 00:13N 36°07' W 005°08'5 7.1
2017-Mar-24 23:33N 36°06' W 005°13'7 6.9
2017-Mar-24 22:33N 36°05' W 005°22'1 0.8
2017-Mar-24 21:34N 36°05' W 005°23'2 2.1
2017-Mar-24 20:33N 36°07' W 005°21'0 0.1
2017-Mar-24 19:21N 36°07' W 005°21'0 0.0
2017-Mar-24 13:33N 36°07' W 005°21'2 1.6
2017-Mar-24 12:33N 36°05' W 005°22'2 2.2
2017-Mar-24 11:33N 36°03' W 005°22'9 8.8
2017-Mar-24 10:33N 35°57' W 005°30'1311.9
2017-Mar-24 09:28N 35°55' W 005°45'  

Dump ship's entire track history